Terminal Aerodrome Forecast
Issued by NWS

Home | Current Version | Previous Version | Text Only | Print | Product List | Glossary On
Versions: 1 2 3 4 5 6 7 8 9 10 11 12 13 14 15 16 17 18 19 20
000
FTUS43 KICT 281703 AAA
TAFCNU
TAF AMD
KCNU 281703Z 2817/2912 19005KT P6SM VCTS SCT040CB BKN060
     FM290100 07005KT P6SM BKN035 OVC150=

USA.gov is the U.S. government's official web portal to all federal, state and local government web resources and services.